Terminal Aerodrome Forecast
Issued by NWS

Home | Current Version | Previous Version | Text Only | Print | Product List | Glossary On
Versions: 1 2 3 4 5 6 7 8 9 10 11 12 13 14 15 16 17 18 19 20 21 22 23 24 25 26 27 28 29 30 31 32 33 34 35 36 37 38 39 40
000
FTUS45 KBOU 052351 CCA
TAFBJC
TAF COR
KBJC 052351Z 0600/0624 28025G35KT P6SM FEW080 SCT120
     FM060200 35010KT P6SM SCT060 BKN100
     FM060600 03006KT P6SM SCT050 BKN100
     FM061200 12006KT P6SM BKN050 BKN100
     FM061800 09012KT P6SM SCT050 BKN100
     FM062100 10012KT P6SM SCT025 OVC050 PROB30 0621/0624 2SM -SN BR
      BKN020=

USA.gov is the U.S. government's official web portal to all federal, state and local government web resources and services.